2C6 weather

Tri-County Airport
Yates City, Illinois, United States

Public forecast

Using degrees Fahrenheit for public forecast. Weather courtesy of forecast.io.

METAR (pilot weather report)

Closest report is General Wayne A. Downing Peoria International Airport, 18.6 nm (34.4 km) ESE. Retrieved 2019/06/18 01:54 UTC (8 minutes ago):

KPIA 180154Z 03003KT 10SM OVC023 19/16 A2997 RMK AO2 SLP146 T01940156 $

TAF (pilot weather forecast)

Forecast is more than 12 hours old.

Closest forecast is General Wayne A. Downing Peoria International Airport, 18.6 nm (34.4 km) ESE. Retrieved 2019/06/17 00:24 UTC (1 day ago):

TAF KPIA 172323Z 1800/1824 05003KT P6SM BKN016 FM181300 03004KT P6SM BKN022 FM181600 36004KT P6SM FEW040 SCT120